Terminal Aerodrome Forecast
Issued by NWS Wilmington, OH

Current Version | Previous Version | Graphics & Text | Print | Product List | Glossary On
Versions: 1 2 3 4 5 6 7 8 9 10 11 12 13 14 15 16 17 18 19 20 21
427
FTUS41 KILN 171123
TAFDAY
TAF
KDAY 171123Z 1712/1812 13008KT P6SM OVC018
     FM171800 15009KT P6SM BKN250
     FM180000 16010G16KT P6SM BKN110
     FM180300 17012G18KT P6SM VCSH OVC060
     FM180500 18014G20KT 6SM -SHRA OVC040 WS020/20040KT
     FM180800 18018G30KT 4SM -SHRA BR OVC025 WS020/20045KT=

USA.gov is the U.S. government's official web portal to all federal, state and local government web resources and services.